createdAt,value
2018-11-22T12:23:32.008Z,94.03
2018-11-22T17:12:43.996Z,104.37
2018-11-22T17:15:14.618Z,109.47
2018-11-22T17:17:44.820Z,108.97
2018-11-22T17:20:14.674Z,115.37
2018-11-22T17:22:43.769Z,108.73
2018-11-22T17:25:15.252Z,110.00
2018-11-22T17:27:44.301Z,116.63
2018-11-22T17:30:15.150Z,112.37
2018-11-22T17:32:44.042Z,110.63
2018-11-22T17:35:14.594Z,114.47
2018-11-22T17:37:43.424Z,119.97
2018-11-22T17:40:19.818Z,123.57
2018-11-22T17:42:48.284Z,115.87
2018-11-22T17:45:21.465Z,115.53
2018-11-22T17:47:50.193Z,117.20
2018-11-22T17:50:18.886Z,113.43
2018-11-22T17:52:47.422Z,122.70
2018-11-22T17:55:17.887Z,120.40
2018-11-22T17:57:46.332Z,123.70
2018-11-22T18:00:18.462Z,111.93
2018-11-22T18:02:48.150Z,131.30
2018-11-22T18:05:16.685Z,118.53
2018-11-22T18:07:45.868Z,112.53
2018-11-22T18:10:16.457Z,119.60
2018-11-22T18:12:46.597Z,122.10
2018-11-22T18:15:16.298Z,114.77
2018-11-22T18:17:45.353Z,111.97
2018-11-22T18:20:19.011Z,117.33
2018-11-22T18:22:48.276Z,117.37
2018-11-22T18:25:18.314Z,110.17
2018-11-22T18:27:48.020Z,118.00
2018-11-22T18:30:24.416Z,120.60
2018-11-22T18:32:54.840Z,113.37
2018-11-22T18:35:23.258Z,109.37
2018-11-22T18:37:51.745Z,113.30
2018-11-22T18:40:21.980Z,103.97
2018-11-22T18:42:51.417Z,110.13
2018-11-22T18:45:25.393Z,109.27
2018-11-22T18:47:53.994Z,117.37
2018-11-22T18:50:23.824Z,114.30
2018-11-22T18:52:52.381Z,110.67
2018-11-22T18:55:21.186Z,111.17
2018-11-22T18:57:49.724Z,117.87
2018-11-22T19:00:29.058Z,125.50
2018-11-22T19:02:58.899Z,111.10
2018-11-22T19:05:34.176Z,110.47
2018-11-22T19:08:02.735Z,110.97
2018-11-22T19:10:33.590Z,113.00
2018-11-22T19:13:03.632Z,104.87
2018-11-22T19:15:33.414Z,106.83
2018-11-22T19:18:02.038Z,107.60
2018-11-22T19:20:32.633Z,104.73
2018-11-22T19:23:02.036Z,97.73
2018-11-22T19:25:30.496Z,101.20
2018-11-22T19:28:00.948Z,93.47
2018-11-22T19:30:37.046Z,102.50
2018-11-22T19:33:00.770Z,106.17
2018-11-22T19:35:30.819Z,101.50
2018-11-22T19:37:59.330Z,98.57
2018-11-22T19:40:29.182Z,104.83
2018-11-22T19:42:59.007Z,102.90
2018-11-22T19:45:30.049Z,95.90
2018-11-22T19:47:58.667Z,106.53
2018-11-22T19:50:28.122Z,102.00
2018-11-22T19:52:57.773Z,100.73
2018-11-22T19:55:28.698Z,100.27
2018-11-22T19:57:58.704Z,108.17
2018-11-22T20:00:27.905Z,98.57
2018-11-22T20:02:57.672Z,100.20
2018-11-22T20:05:27.164Z,98.03
2018-11-22T20:07:58.372Z,97.13
2018-11-22T20:10:30.600Z,102.43
2018-11-22T20:12:58.517Z,92.37
2018-11-22T20:15:27.010Z,97.23
2018-11-22T20:17:56.132Z,95.40
2018-11-22T20:20:25.258Z,100.83
2018-11-22T20:22:53.999Z,99.87
2018-11-22T20:25:22.436Z,92.10
2018-11-22T20:27:51.961Z,107.67
2018-11-22T20:30:22.054Z,105.43
2018-11-22T20:32:50.619Z,101.70
2018-11-22T20:35:20.043Z,99.90
2018-11-22T20:37:49.362Z,100.87
2018-11-22T20:40:20.312Z,106.23
2018-11-22T20:42:48.945Z,102.43
2018-11-22T20:45:18.807Z,102.87
2018-11-22T20:47:48.408Z,104.57
2018-11-22T20:50:18.319Z,108.73
2018-11-22T20:52:46.922Z,99.30
2018-11-22T20:55:18.083Z,104.60
2018-11-22T20:57:47.856Z,105.83
2018-11-22T21:00:17.782Z,111.00
2018-11-22T21:02:46.663Z,110.40
2018-11-22T21:05:16.796Z,109.93
2018-11-22T21:07:45.570Z,107.63
2018-11-22T21:10:30.161Z,107.23
2018-11-22T21:12:58.669Z,106.77
2018-11-22T21:15:29.370Z,103.90
2018-11-22T21:18:00.398Z,112.50
2018-11-22T21:20:30.719Z,100.30
2018-11-22T21:25:27.978Z,102.87
2018-11-22T21:27:56.557Z,107.57
2018-11-22T21:30:27.839Z,104.17
2018-11-22T21:32:57.210Z,104.00
2018-11-22T21:35:26.419Z,106.33
2018-11-22T21:37:56.028Z,103.33
2018-11-22T21:40:25.342Z,100.40
2018-11-22T21:42:53.978Z,101.13
2018-11-22T21:45:23.817Z,106.80
2018-11-22T21:47:52.428Z,92.83
2018-11-22T21:50:22.422Z,104.87
2018-11-22T21:52:51.022Z,107.97
2018-11-22T21:55:21.838Z,103.00
2018-11-22T21:57:51.037Z,109.53
2018-11-22T22:00:22.397Z,100.10
2018-11-22T22:02:53.033Z,97.63
2018-11-22T22:05:21.645Z,101.73
2018-11-22T22:07:50.190Z,106.43
2018-11-22T22:10:18.748Z,95.67
2018-11-22T22:12:47.302Z,99.97
2018-11-22T22:15:18.100Z,100.93
2018-11-22T22:17:47.374Z,93.13
2018-11-22T22:20:21.118Z,93.70
2018-11-22T22:22:49.665Z,96.03
2018-11-22T22:25:19.607Z,94.90
2018-11-22T22:27:49.804Z,94.13
2018-11-22T22:30:22.746Z,90.40
2018-11-22T22:32:52.420Z,92.30
2018-11-22T22:35:20.967Z,92.87
2018-11-22T22:37:49.617Z,83.70
2018-11-22T22:40:20.214Z,88.87
2018-11-22T22:42:49.735Z,96.47
2018-11-22T22:45:19.333Z,94.40
2018-11-22T22:47:48.446Z,91.27
2018-11-22T22:50:18.332Z,92.23
2018-11-22T22:52:47.649Z,89.23
2018-11-22T22:55:16.215Z,90.30
2018-11-22T22:57:44.921Z,85.27
2018-11-22T23:00:26.528Z,87.47
2018-11-22T23:02:57.341Z,92.73
2018-11-22T23:05:26.734Z,91.50
2018-11-22T23:07:55.448Z,93.90
2018-11-22T23:10:24.615Z,96.27
2018-11-22T23:12:56.102Z,90.03
2018-11-22T23:15:25.570Z,89.83
2018-11-22T23:17:54.017Z,88.90
2018-11-22T23:20:24.646Z,95.23
2018-11-22T23:22:53.494Z,100.03
2018-11-22T23:25:23.102Z,96.70
2018-11-22T23:27:51.550Z,98.67
2018-11-22T23:30:23.126Z,89.37
2018-11-22T23:32:53.865Z,97.00
2018-11-22T23:35:22.680Z,97.13
2018-11-22T23:37:52.039Z,96.07
2018-11-22T23:40:22.889Z,97.20
2018-11-22T23:42:52.376Z,92.00
2018-11-22T23:45:23.073Z,96.90
2018-11-22T23:47:51.621Z,90.27
2018-11-22T23:50:21.445Z,99.63
2018-11-22T23:52:51.063Z,92.70
2018-11-22T23:55:19.622Z,94.70
2018-11-22T23:57:48.103Z,92.23
